sensor_id;sensor_type;location;lat;lon;timestamp;pressure;altitude;pressure_sealevel;temperature;humidity
80323;BME280;69636;52.372;13.610;2023-05-14T00:01:06;101768.56;;;10.95;76.29
80323;BME280;69636;52.372;13.610;2023-05-14T00:03:33;101765.41;;;11.01;75.69
80323;BME280;69636;52.372;13.610;2023-05-14T00:06:00;101763.53;;;10.92;76.61
80323;BME280;69636;52.372;13.610;2023-05-14T00:08:28;101767.94;;;10.81;76.89
80323;BME280;69636;52.372;13.610;2023-05-14T00:10:55;101766.66;;;10.76;76.68
80323;BME280;69636;52.372;13.610;2023-05-14T00:13:22;101760.22;;;10.99;75.39
80323;BME280;69636;52.372;13.610;2023-05-14T00:15:50;101753.53;;;11.05;75.35
80323;BME280;69636;52.372;13.610;2023-05-14T00:18:19;101750.94;;;10.94;75.19
80323;BME280;69636;52.372;13.610;2023-05-14T00:20:47;101751.44;;;10.78;76.16
80323;BME280;69636;52.372;13.610;2023-05-14T00:23:15;101756.63;;;10.79;76.49
80323;BME280;69636;52.372;13.610;2023-05-14T00:25:42;101756.09;;;10.85;76.33
80323;BME280;69636;52.372;13.610;2023-05-14T00:28:09;101751.16;;;10.81;76.53
80323;BME280;69636;52.372;13.610;2023-05-14T00:30:36;101749.16;;;10.73;76.47
80323;BME280;69636;52.372;13.610;2023-05-14T00:33:04;101751.69;;;10.75;77.18
80323;BME280;69636;52.372;13.610;2023-05-14T00:35:33;101754.13;;;10.67;77.27
80323;BME280;69636;52.372;13.610;2023-05-14T00:38:00;101755.53;;;10.61;77.74
80323;BME280;69636;52.372;13.610;2023-05-14T00:40:28;101751.63;;;10.65;77.16
80323;BME280;69636;52.372;13.610;2023-05-14T00:42:55;101747.09;;;10.56;77.43
80323;BME280;69636;52.372;13.610;2023-05-14T00:45:22;101752.91;;;10.50;77.88
80323;BME280;69636;52.372;13.610;2023-05-14T00:47:51;101748.94;;;10.44;77.95
80323;BME280;69636;52.372;13.610;2023-05-14T00:50:19;101750.97;;;10.52;77.67
80323;BME280;69636;52.372;13.610;2023-05-14T00:52:49;101747.94;;;10.36;78.38
80323;BME280;69636;52.372;13.610;2023-05-14T00:55:20;101752.28;;;10.14;78.94
80323;BME280;69636;52.372;13.610;2023-05-14T00:57:49;101750.38;;;10.16;78.58
80323;BME280;69636;52.372;13.610;2023-05-14T01:00:17;101755.78;;;10.26;77.94
80323;BME280;69636;52.372;13.610;2023-05-14T01:02:44;101751.84;;;10.20;78.14
80323;BME280;69636;52.372;13.610;2023-05-14T01:05:11;101744.84;;;10.19;78.13
80323;BME280;69636;52.372;13.610;2023-05-14T01:07:51;101738.56;;;10.20;77.98
80323;BME280;69636;52.372;13.610;2023-05-14T01:10:26;101729.13;;;10.16;78.06
80323;BME280;69636;52.372;13.610;2023-05-14T01:13:00;101734.00;;;10.11;78.21
80323;BME280;69636;52.372;13.610;2023-05-14T01:15:30;101732.56;;;10.07;78.52
80323;BME280;69636;52.372;13.610;2023-05-14T01:18:03;101733.81;;;10.35;76.68
80323;BME280;69636;52.372;13.610;2023-05-14T01:20:31;101740.84;;;10.46;75.72
80323;BME280;69636;52.372;13.610;2023-05-14T01:23:00;101741.66;;;10.58;75.28
80323;BME280;69636;52.372;13.610;2023-05-14T01:25:28;101734.66;;;10.36;76.71
80323;BME280;69636;52.372;13.610;2023-05-14T01:27:56;101736.66;;;10.11;77.41
80323;BME280;69636;52.372;13.610;2023-05-14T01:30:30;101731.66;;;10.18;77.28
80323;BME280;69636;52.372;13.610;2023-05-14T01:32:59;101732.59;;;9.96;78.38
80323;BME280;69636;52.372;13.610;2023-05-14T01:35:29;101733.19;;;10.00;78.10
80323;BME280;69636;52.372;13.610;2023-05-14T01:37:57;101731.34;;;10.11;77.71
80323;BME280;69636;52.372;13.610;2023-05-14T01:40:27;101727.97;;;10.09;78.04
80323;BME280;69636;52.372;13.610;2023-05-14T01:42:55;101728.38;;;10.37;76.65
80323;BME280;69636;52.372;13.610;2023-05-14T01:45:23;101731.84;;;10.05;78.67
80323;BME280;69636;52.372;13.610;2023-05-14T01:47:50;101729.81;;;9.98;78.96
80323;BME280;69636;52.372;13.610;2023-05-14T01:50:18;101727.78;;;9.90;79.42
80323;BME280;69636;52.372;13.610;2023-05-14T01:52:46;101730.41;;;10.01;79.13
80323;BME280;69636;52.372;13.610;2023-05-14T01:55:15;101729.91;;;10.07;78.87
80323;BME280;69636;52.372;13.610;2023-05-14T01:57:44;101722.63;;;10.20;78.43
80323;BME280;69636;52.372;13.610;2023-05-14T02:00:11;101722.47;;;10.33;77.39
80323;BME280;69636;52.372;13.610;2023-05-14T02:02:39;101721.69;;;10.22;78.04
80323;BME280;69636;52.372;13.610;2023-05-14T02:05:08;101730.63;;;10.09;78.49
80323;BME280;69636;52.372;13.610;2023-05-14T02:07:37;101719.56;;;10.04;78.93
80323;BME280;69636;52.372;13.610;2023-05-14T02:10:05;101715.16;;;10.14;78.44
80323;BME280;69636;52.372;13.610;2023-05-14T02:12:33;101722.94;;;10.06;78.27
80323;BME280;69636;52.372;13.610;2023-05-14T02:15:02;101720.53;;;9.92;79.29
80323;BME280;69636;52.372;13.610;2023-05-14T02:17:29;101715.97;;;9.94;79.39
80323;BME280;69636;52.372;13.610;2023-05-14T02:19:57;101723.41;;;10.00;78.72
80323;BME280;69636;52.372;13.610;2023-05-14T02:22:24;101720.41;;;9.94;79.14
80323;BME280;69636;52.372;13.610;2023-05-14T02:24:51;101719.94;;;9.88;79.30
80323;BME280;69636;52.372;13.610;2023-05-14T02:27:19;101719.38;;;9.85;79.44
80323;BME280;69636;52.372;13.610;2023-05-14T02:29:46;101716.97;;;9.82;79.49
80323;BME280;69636;52.372;13.610;2023-05-14T02:32:15;101717.16;;;9.90;79.94
80323;BME280;69636;52.372;13.610;2023-05-14T02:34:42;101712.72;;;9.91;80.12
80323;BME280;69636;52.372;13.610;2023-05-14T02:37:09;101716.56;;;9.98;80.07
80323;BME280;69636;52.372;13.610;2023-05-14T02:39:37;101716.44;;;9.88;80.34
80323;BME280;69636;52.372;13.610;2023-05-14T02:42:05;101708.78;;;9.85;80.29
80323;BME280;69636;52.372;13.610;2023-05-14T02:44:35;101711.28;;;10.18;78.32
80323;BME280;69636;52.372;13.610;2023-05-14T02:47:02;101703.25;;;10.09;78.99
80323;BME280;69636;52.372;13.610;2023-05-14T02:49:32;101710.03;;;10.02;79.19
80323;BME280;69636;52.372;13.610;2023-05-14T02:51:59;101710.63;;;10.05;79.21
80323;BME280;69636;52.372;13.610;2023-05-14T02:54:27;101704.16;;;10.30;77.62
80323;BME280;69636;52.372;13.610;2023-05-14T02:56:54;101707.84;;;10.07;78.71
80323;BME280;69636;52.372;13.610;2023-05-14T02:59:23;101702.06;;;10.02;78.88
80323;BME280;69636;52.372;13.610;2023-05-14T03:01:50;101697.47;;;10.04;78.96
80323;BME280;69636;52.372;13.610;2023-05-14T03:04:18;101705.50;;;10.45;76.99
80323;BME280;69636;52.372;13.610;2023-05-14T03:06:47;101704.63;;;10.56;76.10
80323;BME280;69636;52.372;13.610;2023-05-14T03:09:14;101710.53;;;10.69;75.76
80323;BME280;69636;52.372;13.610;2023-05-14T03:11:42;101710.81;;;10.66;75.64
80323;BME280;69636;52.372;13.610;2023-05-14T03:14:09;101709.09;;;10.35;76.94
80323;BME280;69636;52.372;13.610;2023-05-14T03:16:36;101704.59;;;10.03;78.57
80323;BME280;69636;52.372;13.610;2023-05-14T03:19:03;101708.16;;;10.13;78.28
80323;BME280;69636;52.372;13.610;2023-05-14T03:21:31;101716.94;;;9.93;79.53
80323;BME280;69636;52.372;13.610;2023-05-14T03:23:59;101717.16;;;9.90;79.53
80323;BME280;69636;52.372;13.610;2023-05-14T03:26:27;101710.72;;;9.83;79.75
80323;BME280;69636;52.372;13.610;2023-05-14T03:28:54;101716.19;;;10.02;79.10
80323;BME280;69636;52.372;13.610;2023-05-14T03:31:22;101711.78;;;9.80;79.62
80323;BME280;69636;52.372;13.610;2023-05-14T03:33:49;101713.25;;;9.62;80.99
80323;BME280;69636;52.372;13.610;2023-05-14T03:36:17;101714.38;;;9.60;80.70
80323;BME280;69636;52.372;13.610;2023-05-14T03:38:44;101705.84;;;9.45;81.35
80323;BME280;69636;52.372;13.610;2023-05-14T03:41:14;101713.69;;;9.35;81.57
80323;BME280;69636;52.372;13.610;2023-05-14T03:43:41;101700.78;;;9.42;81.49
80323;BME280;69636;52.372;13.610;2023-05-14T03:46:09;101698.25;;;9.40;81.42
80323;BME280;69636;52.372;13.610;2023-05-14T03:48:36;101710.00;;;9.70;80.04
80323;BME280;69636;52.372;13.610;2023-05-14T03:51:05;101706.06;;;9.53;80.56
80323;BME280;69636;52.372;13.610;2023-05-14T03:53:32;101706.88;;;9.65;79.78
80323;BME280;69636;52.372;13.610;2023-05-14T03:55:59;101713.78;;;9.45;80.60
80323;BME280;69636;52.372;13.610;2023-05-14T03:58:28;101708.97;;;9.50;80.39
80323;BME280;69636;52.372;13.610;2023-05-14T04:00:56;101707.81;;;9.75;79.60
80323;BME280;69636;52.372;13.610;2023-05-14T04:03:24;101702.34;;;9.56;80.84
80323;BME280;69636;52.372;13.610;2023-05-14T04:05:51;101708.38;;;9.46;80.69
80323;BME280;69636;52.372;13.610;2023-05-14T04:08:20;101707.41;;;9.36;81.33
80323;BME280;69636;52.372;13.610;2023-05-14T04:10:47;101708.16;;;9.27;82.10
80323;BME280;69636;52.372;13.610;2023-05-14T04:13:14;101714.19;;;9.29;81.99
80323;BME280;69636;52.372;13.610;2023-05-14T04:15:43;101699.69;;;9.44;81.50
80323;BME280;69636;52.372;13.610;2023-05-14T04:18:10;101704.50;;;9.39;81.50
80323;BME280;69636;52.372;13.610;2023-05-14T04:20:38;101699.94;;;9.41;81.85
80323;BME280;69636;52.372;13.610;2023-05-14T04:23:05;101697.03;;;9.56;81.18
80323;BME280;69636;52.372;13.610;2023-05-14T04:25:32;101695.94;;;9.58;81.08
80323;BME280;69636;52.372;13.610;2023-05-14T04:28:01;101697.59;;;9.70;80.80
80323;BME280;69636;52.372;13.610;2023-05-14T04:30:28;101693.69;;;9.85;80.02
80323;BME280;69636;52.372;13.610;2023-05-14T04:32:59;101700.41;;;9.90;79.96
80323;BME280;69636;52.372;13.610;2023-05-14T04:35:29;101698.06;;;10.07;79.42
80323;BME280;69636;52.372;13.610;2023-05-14T04:37:56;101695.47;;;10.28;78.82
80323;BME280;69636;52.372;13.610;2023-05-14T04:40:24;101692.22;;;10.45;78.20
80323;BME280;69636;52.372;13.610;2023-05-14T04:42:53;101684.47;;;10.53;77.96
80323;BME280;69636;52.372;13.610;2023-05-14T04:45:20;101691.34;;;10.56;77.77
80323;BME280;69636;52.372;13.610;2023-05-14T04:47:47;101680.91;;;10.64;77.76
80323;BME280;69636;52.372;13.610;2023-05-14T04:50:16;101679.31;;;10.82;77.28
80323;BME280;69636;52.372;13.610;2023-05-14T04:52:44;101690.06;;;10.81;76.37
80323;BME280;69636;52.372;13.610;2023-05-14T04:55:11;101686.59;;;10.80;76.53
80323;BME280;69636;52.372;13.610;2023-05-14T04:57:38;101681.28;;;10.80;76.75
80323;BME280;69636;52.372;13.610;2023-05-14T05:00:07;101683.16;;;10.90;76.85
80323;BME280;69636;52.372;13.610;2023-05-14T05:02:34;101687.47;;;10.91;77.10
80323;BME280;69636;52.372;13.610;2023-05-14T05:05:02;101689.13;;;10.92;77.55
80323;BME280;69636;52.372;13.610;2023-05-14T05:07:31;101682.19;;;11.00;77.23
80323;BME280;69636;52.372;13.610;2023-05-14T05:09:58;101685.63;;;11.12;77.28
80323;BME280;69636;52.372;13.610;2023-05-14T05:12:25;101692.50;;;11.24;77.07
80323;BME280;69636;52.372;13.610;2023-05-14T05:14:52;101690.00;;;11.32;76.29
80323;BME280;69636;52.372;13.610;2023-05-14T05:17:19;101674.22;;;11.50;75.75
80323;BME280;69636;52.372;13.610;2023-05-14T05:19:47;101684.63;;;11.63;75.10
80323;BME280;69636;52.372;13.610;2023-05-14T05:22:14;101686.38;;;11.83;73.74
80323;BME280;69636;52.372;13.610;2023-05-14T05:24:43;101680.59;;;12.36;71.82
80323;BME280;69636;52.372;13.610;2023-05-14T05:27:10;101687.34;;;12.40;70.30
80323;BME280;69636;52.372;13.610;2023-05-14T05:29:38;101682.97;;;12.48;71.24
80323;BME280;69636;52.372;13.610;2023-05-14T05:32:06;101672.28;;;12.68;70.49
80323;BME280;69636;52.372;13.610;2023-05-14T05:34:33;101672.22;;;12.77;69.91
80323;BME280;69636;52.372;13.610;2023-05-14T05:37:01;101668.59;;;12.78;69.00
80323;BME280;69636;52.372;13.610;2023-05-14T05:39:29;101669.53;;;12.87;68.37
80323;BME280;69636;52.372;13.610;2023-05-14T05:41:58;101678.31;;;13.07;67.52
80323;BME280;69636;52.372;13.610;2023-05-14T05:44:25;101671.28;;;13.15;67.30
80323;BME280;69636;52.372;13.610;2023-05-14T05:46:52;101666.72;;;13.25;66.86
80323;BME280;69636;52.372;13.610;2023-05-14T05:49:21;101668.66;;;13.33;67.33
80323;BME280;69636;52.372;13.610;2023-05-14T05:51:49;101664.00;;;13.63;65.34
80323;BME280;69636;52.372;13.610;2023-05-14T05:54:16;101657.44;;;13.75;63.78
80323;BME280;69636;52.372;13.610;2023-05-14T05:56:44;101661.56;;;13.87;63.53
80323;BME280;69636;52.372;13.610;2023-05-14T05:59:12;101664.13;;;13.79;62.10
80323;BME280;69636;52.372;13.610;2023-05-14T06:01:40;101662.47;;;13.78;63.34
80323;BME280;69636;52.372;13.610;2023-05-14T06:04:07;101656.69;;;14.00;61.54
80323;BME280;69636;52.372;13.610;2023-05-14T06:06:34;101657.28;;;13.94;61.28
80323;BME280;69636;52.372;13.610;2023-05-14T06:09:01;101661.69;;;14.03;61.41
80323;BME280;69636;52.372;13.610;2023-05-14T06:11:29;101664.06;;;14.06;61.16
80323;BME280;69636;52.372;13.610;2023-05-14T06:13:57;101669.41;;;14.24;61.01
80323;BME280;69636;52.372;13.610;2023-05-14T06:16:26;101660.75;;;14.48;59.89
80323;BME280;69636;52.372;13.610;2023-05-14T06:18:53;101662.91;;;14.26;59.72
80323;BME280;69636;52.372;13.610;2023-05-14T06:21:21;101665.47;;;14.54;59.48
80323;BME280;69636;52.372;13.610;2023-05-14T06:23:48;101671.97;;;14.51;58.84
80323;BME280;69636;52.372;13.610;2023-05-14T06:26:15;101668.78;;;14.48;58.06
80323;BME280;69636;52.372;13.610;2023-05-14T06:28:43;101668.50;;;14.59;58.23
80323;BME280;69636;52.372;13.610;2023-05-14T06:31:14;101664.63;;;14.79;58.29
80323;BME280;69636;52.372;13.610;2023-05-14T06:33:42;101670.44;;;14.75;58.04
80323;BME280;69636;52.372;13.610;2023-05-14T06:36:10;101660.53;;;14.67;58.25
80323;BME280;69636;52.372;13.610;2023-05-14T06:38:37;101670.00;;;14.87;57.49
80323;BME280;69636;52.372;13.610;2023-05-14T06:41:04;101669.78;;;14.73;57.84
80323;BME280;69636;52.372;13.610;2023-05-14T06:43:31;101669.31;;;14.77;57.92
80323;BME280;69636;52.372;13.610;2023-05-14T06:45:59;101656.22;;;15.00;57.17
80323;BME280;69636;52.372;13.610;2023-05-14T06:48:26;101658.16;;;14.90;58.12
80323;BME280;69636;52.372;13.610;2023-05-14T06:50:56;101660.78;;;15.16;57.03
80323;BME280;69636;52.372;13.610;2023-05-14T06:53:23;101658.84;;;15.34;56.24
80323;BME280;69636;52.372;13.610;2023-05-14T06:55:51;101651.66;;;15.26;56.75
80323;BME280;69636;52.372;13.610;2023-05-14T06:58:18;101656.84;;;15.36;56.36
80323;BME280;69636;52.372;13.610;2023-05-14T07:00:45;101653.47;;;15.76;56.07
80323;BME280;69636;52.372;13.610;2023-05-14T07:03:12;101657.66;;;15.79;55.84
80323;BME280;69636;52.372;13.610;2023-05-14T07:05:40;101654.81;;;15.80;55.12
80323;BME280;69636;52.372;13.610;2023-05-14T07:08:08;101652.63;;;15.92;55.22
80323;BME280;69636;52.372;13.610;2023-05-14T07:10:38;101652.81;;;16.31;54.31
80323;BME280;69636;52.372;13.610;2023-05-14T07:13:07;101657.81;;;16.42;53.11
80323;BME280;69636;52.372;13.610;2023-05-14T07:15:34;101647.56;;;16.62;52.01
80323;BME280;69636;52.372;13.610;2023-05-14T07:18:02;101652.59;;;16.81;52.64
80323;BME280;69636;52.372;13.610;2023-05-14T07:20:29;101645.69;;;16.87;51.10
80323;BME280;69636;52.372;13.610;2023-05-14T07:22:56;101646.38;;;16.89;50.83
80323;BME280;69636;52.372;13.610;2023-05-14T07:25:25;101644.38;;;16.75;52.13
80323;BME280;69636;52.372;13.610;2023-05-14T07:27:52;101641.91;;;17.12;50.60
80323;BME280;69636;52.372;13.610;2023-05-14T07:30:20;101637.72;;;17.10;51.08
80323;BME280;69636;52.372;13.610;2023-05-14T07:32:47;101641.09;;;17.04;51.34
80323;BME280;69636;52.372;13.610;2023-05-14T07:35:15;101634.78;;;17.58;49.72
80323;BME280;69636;52.372;13.610;2023-05-14T07:37:42;101634.88;;;17.73;48.22
80323;BME280;69636;52.372;13.610;2023-05-14T07:40:10;101628.66;;;17.73;47.49
80323;BME280;69636;52.372;13.610;2023-05-14T07:42:38;101623.78;;;17.76;46.58
80323;BME280;69636;52.372;13.610;2023-05-14T07:45:07;101622.44;;;17.95;47.46
80323;BME280;69636;52.372;13.610;2023-05-14T07:47:34;101616.06;;;17.96;47.11
80323;BME280;69636;52.372;13.610;2023-05-14T07:50:02;101619.09;;;17.93;44.37
80323;BME280;69636;52.372;13.610;2023-05-14T07:52:29;101619.69;;;18.03;44.83
80323;BME280;69636;52.372;13.610;2023-05-14T07:54:56;101609.91;;;18.10;45.12
80323;BME280;69636;52.372;13.610;2023-05-14T07:57:24;101609.00;;;18.33;45.70
80323;BME280;69636;52.372;13.610;2023-05-14T07:59:52;101606.78;;;18.51;44.13
80323;BME280;69636;52.372;13.610;2023-05-14T08:02:23;101600.41;;;18.37;44.77
80323;BME280;69636;52.372;13.610;2023-05-14T08:04:51;101604.22;;;18.43;44.66
80323;BME280;69636;52.372;13.610;2023-05-14T08:07:18;101602.22;;;18.59;45.51
80323;BME280;69636;52.372;13.610;2023-05-14T08:09:45;101599.38;;;19.12;42.88
80323;BME280;69636;52.372;13.610;2023-05-14T08:12:14;101602.47;;;19.30;41.68
80323;BME280;69636;52.372;13.610;2023-05-14T08:14:41;101600.97;;;19.42;42.04
80323;BME280;69636;52.372;13.610;2023-05-14T08:17:11;101594.00;;;19.48;42.98
80323;BME280;69636;52.372;13.610;2023-05-14T08:19:38;101594.28;;;19.38;42.80
80323;BME280;69636;52.372;13.610;2023-05-14T08:22:06;101594.13;;;19.25;43.32
80323;BME280;69636;52.372;13.610;2023-05-14T08:24:33;101590.72;;;19.52;41.19
80323;BME280;69636;52.372;13.610;2023-05-14T08:27:00;101583.50;;;19.74;42.33
80323;BME280;69636;52.372;13.610;2023-05-14T08:29:27;101581.63;;;19.96;41.10
80323;BME280;69636;52.372;13.610;2023-05-14T08:31:55;101581.19;;;19.92;41.14
80323;BME280;69636;52.372;13.610;2023-05-14T08:34:23;101569.56;;;20.20;39.81
80323;BME280;69636;52.372;13.610;2023-05-14T08:36:52;101573.56;;;20.24;40.15
80323;BME280;69636;52.372;13.610;2023-05-14T08:39:19;101570.09;;;20.64;38.99
80323;BME280;69636;52.372;13.610;2023-05-14T08:41:46;101565.72;;;21.05;39.14
80323;BME280;69636;52.372;13.610;2023-05-14T08:44:18;101564.69;;;21.19;38.05
80323;BME280;69636;52.372;13.610;2023-05-14T08:46:48;101569.19;;;21.73;38.15
80323;BME280;69636;52.372;13.610;2023-05-14T08:49:24;101557.97;;;21.89;34.66
80323;BME280;69636;52.372;13.610;2023-05-14T08:51:56;101557.09;;;22.48;33.63
80323;BME280;69636;52.372;13.610;2023-05-14T08:54:24;101564.03;;;23.33;31.33
80323;BME280;69636;52.372;13.610;2023-05-14T08:56:52;101557.88;;;24.07;31.82
80323;BME280;69636;52.372;13.610;2023-05-14T08:59:21;101551.41;;;23.52;30.18
80323;BME280;69636;52.372;13.610;2023-05-14T09:01:52;101552.00;;;24.10;29.89
80323;BME280;69636;52.372;13.610;2023-05-14T09:04:22;101542.47;;;24.26;29.00
80323;BME280;69636;52.372;13.610;2023-05-14T09:06:51;101546.69;;;24.77;27.50
80323;BME280;69636;52.372;13.610;2023-05-14T09:09:21;101534.97;;;25.54;26.94
80323;BME280;69636;52.372;13.610;2023-05-14T09:11:50;101534.56;;;24.79;28.37
80323;BME280;69636;52.372;13.610;2023-05-14T09:14:22;101533.56;;;25.22;27.26
80323;BME280;69636;52.372;13.610;2023-05-14T09:16:50;101522.56;;;25.58;26.34
80323;BME280;69636;52.372;13.610;2023-05-14T09:19:18;101523.28;;;25.54;26.68
80323;BME280;69636;52.372;13.610;2023-05-14T09:21:47;101516.41;;;24.25;28.60
80323;BME280;69636;52.372;13.610;2023-05-14T09:24:21;101517.88;;;23.78;29.55
80323;BME280;69636;52.372;13.610;2023-05-14T09:26:49;101512.31;;;23.10;30.27
80323;BME280;69636;52.372;13.610;2023-05-14T09:29:17;101505.38;;;22.69;31.74
80323;BME280;69636;52.372;13.610;2023-05-14T09:31:45;101511.84;;;23.13;31.37
80323;BME280;69636;52.372;13.610;2023-05-14T09:34:22;101503.84;;;22.35;32.42
80323;BME280;69636;52.372;13.610;2023-05-14T09:36:54;101495.78;;;21.95;34.60
80323;BME280;69636;52.372;13.610;2023-05-14T09:39:23;101496.81;;;21.35;33.38
80323;BME280;69636;52.372;13.610;2023-05-14T09:41:51;101498.09;;;21.46;32.19
80323;BME280;69636;52.372;13.610;2023-05-14T09:44:19;101491.78;;;21.19;33.21
80323;BME280;69636;52.372;13.610;2023-05-14T09:46:46;101497.16;;;21.12;33.44
80323;BME280;69636;52.372;13.610;2023-05-14T09:49:15;101478.47;;;21.11;33.13
80323;BME280;69636;52.372;13.610;2023-05-14T09:51:42;101482.94;;;20.71;33.46
80323;BME280;69636;52.372;13.610;2023-05-14T09:54:10;101483.47;;;20.53;33.03
80323;BME280;69636;52.372;13.610;2023-05-14T09:56:39;101476.09;;;20.33;33.05
80323;BME280;69636;52.372;13.610;2023-05-14T09:59:07;101472.34;;;20.28;34.18
80323;BME280;69636;52.372;13.610;2023-05-14T10:01:35;101480.06;;;20.03;35.35
80323;BME280;69636;52.372;13.610;2023-05-14T10:04:06;101472.41;;;20.00;34.44
80323;BME280;69636;52.372;13.610;2023-05-14T10:06:36;101465.00;;;19.81;35.61
80323;BME280;69636;52.372;13.610;2023-05-14T10:09:06;101468.91;;;20.06;34.28
80323;BME280;69636;52.372;13.610;2023-05-14T10:11:37;101458.53;;;20.98;32.07
80323;BME280;69636;52.372;13.610;2023-05-14T10:14:07;101458.00;;;21.56;31.67
80323;BME280;69636;52.372;13.610;2023-05-14T10:16:39;101464.00;;;21.31;32.60
80323;BME280;69636;52.372;13.610;2023-05-14T10:19:11;101462.66;;;20.88;32.97
80323;BME280;69636;52.372;13.610;2023-05-14T10:21:40;101447.63;;;20.59;33.74
80323;BME280;69636;52.372;13.610;2023-05-14T10:24:11;101454.59;;;20.40;33.40
80323;BME280;69636;52.372;13.610;2023-05-14T10:26:39;101463.34;;;20.14;34.12
80323;BME280;69636;52.372;13.610;2023-05-14T10:29:09;101456.06;;;20.08;34.28
80323;BME280;69636;52.372;13.610;2023-05-14T10:31:47;101459.34;;;20.04;33.94
80323;BME280;69636;52.372;13.610;2023-05-14T10:34:31;101458.94;;;20.00;34.61
80323;BME280;69636;52.372;13.610;2023-05-14T10:37:02;101441.63;;;20.22;34.15
80323;BME280;69636;52.372;13.610;2023-05-14T10:39:42;101439.78;;;20.23;34.11
80323;BME280;69636;52.372;13.610;2023-05-14T10:42:12;101444.97;;;19.90;35.33
80323;BME280;69636;52.372;13.610;2023-05-14T10:44:51;101440.88;;;19.66;35.52
80323;BME280;69636;52.372;13.610;2023-05-14T10:47:20;101436.91;;;19.62;35.21
80323;BME280;69636;52.372;13.610;2023-05-14T10:49:51;101439.25;;;19.72;35.51
80323;BME280;69636;52.372;13.610;2023-05-14T10:52:20;101430.75;;;19.47;35.94
80323;BME280;69636;52.372;13.610;2023-05-14T10:54:51;101435.91;;;19.20;37.73
80323;BME280;69636;52.372;13.610;2023-05-14T10:57:20;101431.75;;;19.18;35.85
80323;BME280;69636;52.372;13.610;2023-05-14T10:59:52;101431.97;;;19.23;36.08
80323;BME280;69636;52.372;13.610;2023-05-14T11:02:22;101429.28;;;19.23;38.12
80323;BME280;69636;52.372;13.610;2023-05-14T11:04:58;101419.94;;;19.40;37.22
80323;BME280;69636;52.372;13.610;2023-05-14T11:07:27;101430.16;;;19.73;36.00
80323;BME280;69636;52.372;13.610;2023-05-14T11:09:59;101419.53;;;19.99;34.69
80323;BME280;69636;52.372;13.610;2023-05-14T11:12:27;101417.78;;;20.19;33.89
80323;BME280;69636;52.372;13.610;2023-05-14T11:14:58;101416.69;;;20.55;34.69
80323;BME280;69636;52.372;13.610;2023-05-14T11:17:26;101412.06;;;21.23;34.22
80323;BME280;69636;52.372;13.610;2023-05-14T11:19:54;101401.22;;;21.10;32.82
80323;BME280;69636;52.372;13.610;2023-05-14T11:22:22;101403.06;;;20.83;35.25
80323;BME280;69636;52.372;13.610;2023-05-14T11:24:50;101406.53;;;20.57;35.63
80323;BME280;69636;52.372;13.610;2023-05-14T11:27:18;101403.41;;;20.60;35.92
80323;BME280;69636;52.372;13.610;2023-05-14T11:29:47;101407.34;;;20.51;36.94
80323;BME280;69636;52.372;13.610;2023-05-14T11:32:16;101404.28;;;20.19;37.75
80323;BME280;69636;52.372;13.610;2023-05-14T11:34:44;101398.81;;;19.99;37.80
80323;BME280;69636;52.372;13.610;2023-05-14T11:37:15;101401.22;;;19.88;37.81
80323;BME280;69636;52.372;13.610;2023-05-14T11:39:46;101389.94;;;19.78;38.82
80323;BME280;69636;52.372;13.610;2023-05-14T11:42:14;101384.16;;;19.81;39.05
80323;BME280;69636;52.372;13.610;2023-05-14T11:44:41;101386.44;;;19.77;38.44
80323;BME280;69636;52.372;13.610;2023-05-14T11:47:09;101384.41;;;19.51;40.28
80323;BME280;69636;52.372;13.610;2023-05-14T11:49:38;101384.94;;;19.68;39.73
80323;BME280;69636;52.372;13.610;2023-05-14T11:52:06;101378.22;;;19.57;40.76
80323;BME280;69636;52.372;13.610;2023-05-14T11:54:34;101373.78;;;19.71;40.19
80323;BME280;69636;52.372;13.610;2023-05-14T11:57:06;101368.59;;;19.70;40.88
80323;BME280;69636;52.372;13.610;2023-05-14T11:59:34;101366.88;;;20.03;38.69
80323;BME280;69636;52.372;13.610;2023-05-14T12:02:02;101360.41;;;20.39;39.09
80323;BME280;69636;52.372;13.610;2023-05-14T12:04:30;101359.25;;;20.74;38.48
80323;BME280;69636;52.372;13.610;2023-05-14T12:07:03;101353.88;;;21.07;36.14
80323;BME280;69636;52.372;13.610;2023-05-14T12:09:35;101351.88;;;22.00;33.08
80323;BME280;69636;52.372;13.610;2023-05-14T12:12:07;101353.25;;;22.92;32.74
80323;BME280;69636;52.372;13.610;2023-05-14T12:14:37;101344.31;;;22.91;31.50
80323;BME280;69636;52.372;13.610;2023-05-14T12:17:10;101339.00;;;22.72;31.30
80323;BME280;69636;52.372;13.610;2023-05-14T12:19:39;101337.59;;;23.00;31.92
80323;BME280;69636;52.372;13.610;2023-05-14T12:22:08;101335.44;;;22.84;30.71
80323;BME280;69636;52.372;13.610;2023-05-14T12:24:36;101332.56;;;22.79;30.60
80323;BME280;69636;52.372;13.610;2023-05-14T12:27:04;101334.31;;;22.60;30.00
80323;BME280;69636;52.372;13.610;2023-05-14T12:29:34;101336.25;;;22.47;30.05
80323;BME280;69636;52.372;13.610;2023-05-14T12:32:02;101328.94;;;22.16;31.40
80323;BME280;69636;52.372;13.610;2023-05-14T12:34:29;101330.69;;;22.04;30.52
80323;BME280;69636;52.372;13.610;2023-05-14T12:36:56;101321.41;;;21.66;30.42
80323;BME280;69636;52.372;13.610;2023-05-14T12:39:25;101325.84;;;21.48;32.01
80323;BME280;69636;52.372;13.610;2023-05-14T12:41:52;101328.53;;;21.41;31.80
80323;BME280;69636;52.372;13.610;2023-05-14T12:44:19;101322.72;;;21.44;32.26
80323;BME280;69636;52.372;13.610;2023-05-14T12:46:46;101316.91;;;21.34;33.02